Tina-c — 2APY2 — position and weather

sailwx.info

Track history (hours):
 
Tides and Currents Weather Stations Pressure Air Temp Water Temp Dewpoint Dewpoint Depression Visibility Wind Speed Wind Dir Waves Ship Positions

Tina-c

Last reported at 2016-Jul-26 23:33 UTC. Time now 2016-Jul-27 05:43 UTC.
Position N 36°36' E 014°47'.

Length 99 m; draft 4 m.

Type: Cargo ship. MMSI: 235061987.

Date/timePositionNaut miles runAvg speedWind from/ knotsBaromVisibWave heightAir tempDewpointWater temp
2016-Jul-26 23:33N 36°36' E 014°47'1111.2
2016-Jul-26 22:33N 36°39' E 014°33'1111.0
2016-Jul-26 21:33N 36°44' E 014°21'1111.2
2016-Jul-26 20:33N 36°50' E 014°09'1211.9
2016-Jul-26 19:33N 36°56' E 013°57'1212.3
2016-Jul-26 18:33N 37°03' E 013°44'1212.2
2016-Jul-26 17:33N 37°10' E 013°31'6 5.7
2016-Jul-26 16:31N 37°15' E 013°33'0 0.0
2016-Jul-26 15:31N 37°15' E 013°33'2 0.9
2016-Jul-26 13:20N 37°17' E 013°32'  
2016-Jul-23 21:33N 37°25' E 012°28'1110.5
2016-Jul-23 20:33N 37°31' E 012°17'38610.4
2016-Jul-22 07:33N 39°60' E 004°40'4510.4
2016-Jul-22 03:15N 40°17' E 003°46'710.4
2016-Jul-22 02:33N 40°20' E 003°37'1210.4
2016-Jul-22 01:25N 40°24' E 003°23'910.4
2016-Jul-22 00:33N 40°28' E 003°12'1010.2
2016-Jul-21 23:33N 40°31' E 002°59'1010.3
2016-Jul-21 22:33N 40°34' E 002°46'1010.1
2016-Jul-21 21:33N 40°39' E 002°34'1010.3
2016-Jul-21 20:33N 40°43' E 002°22'1010.4
2016-Jul-21 19:33N 40°47' E 002°09'1010.3
2016-Jul-21 18:33N 40°50' E 001°56'1010.4
2016-Jul-21 17:33N 40°54' E 001°43'1010.3
2016-Jul-21 16:33N 40°58' E 001°31'1110.2
2016-Jul-21 15:31N 41°02' E 001°18'5 0.9
2016-Jul-21 10:19N 41°06' E 001°14'0 0.0
2016-Jul-21 08:13N 41°06' E 001°14'0 0.0
2016-Jul-21 06:31N 41°06' E 001°14'0 0.0
2016-Jul-21 05:25N 41°06' E 001°14'0 0.0
2016-Jul-21 02:31N 41°06' E 001°14'0 0.0
2016-Jul-21 01:31N 41°06' E 001°14'0 0.0
2016-Jul-21 00:25N 41°06' E 001°14'0 0.0
2016-Jul-20 23:19N 41°06' E 001°14'0 0.1
2016-Jul-20 22:33N 41°06' E 001°14'7 6.7
2016-Jul-20 21:33N 41°03' E 001°22'1410.7
2016-Jul-20 20:14N 41°02' E 001°40'710.4
2016-Jul-20 19:33N 41°01' E 001°50'1210.4
2016-Jul-20 18:27N 41°02' E 002°05'2010.6
2016-Jul-20 16:33N 41°12' E 002°28'1010.2
2016-Jul-20 15:33N 41°18' E 002°40'10 9.5
2016-Jul-20 14:31N 41°22' E 002°51'1010.3
2016-Jul-20 13:33N 41°27' E 003°03'1010.3
2016-Jul-20 12:32N 41°32' E 003°15'2610.3
2016-Jul-20 10:04N 41°45' E 003°45'610.3
2016-Jul-20 09:28N 41°48' E 003°52'1110.3
2016-Jul-20 08:26N 41°53' E 004°04'11311.0
2016-Jul-19 22:06N 42°49' E 006°18'611.2
2016-Jul-19 21:33N 42°52' E 006°25'1111.2
2016-Jul-19 20:33N 42°57' E 006°39'1111.0
2016-Jul-19 19:33N 43°03' E 006°51'1010.3
2016-Jul-19 18:33N 43°10' E 007°02'1111.3
2016-Jul-19 17:33N 43°17' E 007°14'1211.7
2016-Jul-19 16:33N 43°24' E 007°27'1211.7
2016-Jul-19 15:33N 43°31' E 007°40'1211.8
2016-Jul-19 14:33N 43°38' E 007°53'1211.6
2016-Jul-19 13:33N 43°45' E 008°05'1211.6
2016-Jul-19 12:33N 43°52' E 008°18'1211.6
2016-Jul-19 11:33N 43°60' E 008°31'1111.1
2016-Jul-19 10:33N 44°11' E 008°32'8 7.9
2016-Jul-19 09:31N 44°19' E 008°30'0 0.0
2016-Jul-19 08:31N 44°19' E 008°30'0 0.0
2016-Jul-19 07:28N 44°19' E 008°30'0 0.0
2016-Jul-19 04:31N 44°19' E 008°30'0 0.0
2016-Jul-19 03:28N 44°19' E 008°30'0 0.0
2016-Jul-19 02:28N 44°19' E 008°30'0 0.0
2016-Jul-19 01:31N 44°19' E 008°30'0 0.0
2016-Jul-19 00:28N 44°19' E 008°30'0 0.0
2016-Jul-18 23:22N 44°19' E 008°30'0 0.0
2016-Jul-18 22:28N 44°19' E 008°30'0 0.0
2016-Jul-18 21:28N 44°19' E 008°30'0 0.0
2016-Jul-18 20:22N 44°19' E 008°30'0 0.0
2016-Jul-18 19:31N 44°19' E 008°30'0 0.0
2016-Jul-18 18:28N 44°19' E 008°30'0 0.1
2016-Jul-18 17:28N 44°19' E 008°30'0 0.0
2016-Jul-18 16:28N 44°19' E 008°30'0 0.0
2016-Jul-18 15:28N 44°19' E 008°30'0 0.0
2016-Jul-18 14:28N 44°19' E 008°30'0 0.0
2016-Jul-18 13:28N 44°19' E 008°30'0 0.0
2016-Jul-18 12:28N 44°19' E 008°30'0 0.0
2016-Jul-18 11:28N 44°19' E 008°30'0 0.0
2016-Jul-18 10:28N 44°19' E 008°30'0 0.0
2016-Jul-18 09:22N 44°19' E 008°30'0 0.0
2016-Jul-18 08:28N 44°19' E 008°30'0 0.0
2016-Jul-18 07:28N 44°19' E 008°30'0 0.0
2016-Jul-18 06:22N 44°19' E 008°30'0 0.0
2016-Jul-18 05:28N 44°19' E 008°30'0 0.0
2016-Jul-18 04:28N 44°19' E 008°30'0 0.0
2016-Jul-18 03:28N 44°19' E 008°30'0 0.0
2016-Jul-18 02:22N 44°19' E 008°30'0 0.0
2016-Jul-18 01:28N 44°19' E 008°30'0 0.0
2016-Jul-18 00:28N 44°19' E 008°30'0 0.0
2016-Jul-17 23:28N 44°19' E 008°30'0 0.0
2016-Jul-17 22:28N 44°19' E 008°30'0 0.0
2016-Jul-17 21:28N 44°19' E 008°30'0 0.0
2016-Jul-17 20:28N 44°19' E 008°30'0 0.0
2016-Jul-17 19:28N 44°19' E 008°30'0 0.0
2016-Jul-17 18:28N 44°19' E 008°30'0 0.0
2016-Jul-17 17:31N 44°19' E 008°30'0 0.0
2016-Jul-17 16:28N 44°19' E 008°30'0 0.0
2016-Jul-17 15:28N 44°19' E 008°30'0 0.0
2016-Jul-17 14:31N 44°19' E 008°30'0 0.0
2016-Jul-17 13:28N 44°19' E 008°30'0 0.0
2016-Jul-17 12:28N 44°19' E 008°30'0 0.0
2016-Jul-17 11:31N 44°19' E 008°30'0 0.0
2016-Jul-17 10:10N 44°19' E 008°30'0 0.0
2016-Jul-17 09:28N 44°19' E 008°30'0 0.0
2016-Jul-17 08:28N 44°19' E 008°30'0 0.0
2016-Jul-17 07:28N 44°19' E 008°30'0 0.0
2016-Jul-17 06:28N 44°19' E 008°30'0 0.0
2016-Jul-17 04:22N 44°19' E 008°30'0 0.0
2016-Jul-17 03:28N 44°19' E 008°30'0 0.0
2016-Jul-17 02:25N 44°19' E 008°30'0 0.0
2016-Jul-17 01:28N 44°19' E 008°30'0 0.0
2016-Jul-17 00:28N 44°19' E 008°30'  
Track history (hours):
 
Tides and Currents Weather Stations Pressure Air Temp Water Temp Dewpoint Dewpoint Depression Visibility Wind Speed Wind Dir Waves Ship Positions

Tina-c

Last reported at 2016-Jul-26 23:33 UTC. Time now 2016-Jul-27 05:43 UTC.
Position N 36°36' E 014°47'.

Length 99 m; draft 4 m.

Type: Cargo ship. MMSI: 235061987.

Date/timePositionNaut miles runAvg speedWind from/ knotsBaromVisibWave heightAir tempDewpointWater temp
2016-Jul-26 23:33N 36°36' E 014°47'1111.2
2016-Jul-26 22:33N 36°39' E 014°33'1111.0
2016-Jul-26 21:33N 36°44' E 014°21'1111.2
2016-Jul-26 20:33N 36°50' E 014°09'1211.9
2016-Jul-26 19:33N 36°56' E 013°57'1212.3
2016-Jul-26 18:33N 37°03' E 013°44'1212.2
2016-Jul-26 17:33N 37°10' E 013°31'6 5.7
2016-Jul-26 16:31N 37°15' E 013°33'0 0.0
2016-Jul-26 15:31N 37°15' E 013°33'2 0.9
2016-Jul-26 13:20N 37°17' E 013°32'  
2016-Jul-23 21:33N 37°25' E 012°28'1110.5
2016-Jul-23 20:33N 37°31' E 012°17'38610.4
2016-Jul-22 07:33N 39°60' E 004°40'4510.4
2016-Jul-22 03:15N 40°17' E 003°46'710.4
2016-Jul-22 02:33N 40°20' E 003°37'1210.4
2016-Jul-22 01:25N 40°24' E 003°23'910.4
2016-Jul-22 00:33N 40°28' E 003°12'1010.2
2016-Jul-21 23:33N 40°31' E 002°59'1010.3
2016-Jul-21 22:33N 40°34' E 002°46'1010.1
2016-Jul-21 21:33N 40°39' E 002°34'1010.3
2016-Jul-21 20:33N 40°43' E 002°22'1010.4
2016-Jul-21 19:33N 40°47' E 002°09'1010.3
2016-Jul-21 18:33N 40°50' E 001°56'1010.4
2016-Jul-21 17:33N 40°54' E 001°43'1010.3
2016-Jul-21 16:33N 40°58' E 001°31'1110.2
2016-Jul-21 15:31N 41°02' E 001°18'5 0.9
2016-Jul-21 10:19N 41°06' E 001°14'0 0.0
2016-Jul-21 08:13N 41°06' E 001°14'0 0.0
2016-Jul-21 06:31N 41°06' E 001°14'0 0.0
2016-Jul-21 05:25N 41°06' E 001°14'0 0.0
2016-Jul-21 02:31N 41°06' E 001°14'0 0.0
2016-Jul-21 01:31N 41°06' E 001°14'0 0.0
2016-Jul-21 00:25N 41°06' E 001°14'0 0.0
2016-Jul-20 23:19N 41°06' E 001°14'0 0.1
2016-Jul-20 22:33N 41°06' E 001°14'7 6.7
2016-Jul-20 21:33N 41°03' E 001°22'1410.7
2016-Jul-20 20:14N 41°02' E 001°40'710.4
2016-Jul-20 19:33N 41°01' E 001°50'1210.4
2016-Jul-20 18:27N 41°02' E 002°05'2010.6
2016-Jul-20 16:33N 41°12' E 002°28'1010.2
2016-Jul-20 15:33N 41°18' E 002°40'10 9.5
2016-Jul-20 14:31N 41°22' E 002°51'1010.3
2016-Jul-20 13:33N 41°27' E 003°03'1010.3
2016-Jul-20 12:32N 41°32' E 003°15'2610.3
2016-Jul-20 10:04N 41°45' E 003°45'610.3
2016-Jul-20 09:28N 41°48' E 003°52'1110.3
2016-Jul-20 08:26N 41°53' E 004°04'11311.0
2016-Jul-19 22:06N 42°49' E 006°18'611.2
2016-Jul-19 21:33N 42°52' E 006°25'1111.2
2016-Jul-19 20:33N 42°57' E 006°39'1111.0
2016-Jul-19 19:33N 43°03' E 006°51'1010.3
2016-Jul-19 18:33N 43°10' E 007°02'1111.3
2016-Jul-19 17:33N 43°17' E 007°14'1211.7
2016-Jul-19 16:33N 43°24' E 007°27'1211.7
2016-Jul-19 15:33N 43°31' E 007°40'1211.8
2016-Jul-19 14:33N 43°38' E 007°53'1211.6
2016-Jul-19 13:33N 43°45' E 008°05'1211.6
2016-Jul-19 12:33N 43°52' E 008°18'1211.6
2016-Jul-19 11:33N 43°60' E 008°31'1111.1
2016-Jul-19 10:33N 44°11' E 008°32'8 7.9
2016-Jul-19 09:31N 44°19' E 008°30'0 0.0
2016-Jul-19 08:31N 44°19' E 008°30'0 0.0
2016-Jul-19 07:28N 44°19' E 008°30'0 0.0
2016-Jul-19 04:31N 44°19' E 008°30'0 0.0
2016-Jul-19 03:28N 44°19' E 008°30'0 0.0
2016-Jul-19 02:28N 44°19' E 008°30'0 0.0
2016-Jul-19 01:31N 44°19' E 008°30'0 0.0
2016-Jul-19 00:28N 44°19' E 008°30'0 0.0
2016-Jul-18 23:22N 44°19' E 008°30'0 0.0
2016-Jul-18 22:28N 44°19' E 008°30'0 0.0
2016-Jul-18 21:28N 44°19' E 008°30'0 0.0
2016-Jul-18 20:22N 44°19' E 008°30'0 0.0
2016-Jul-18 19:31N 44°19' E 008°30'0 0.0
2016-Jul-18 18:28N 44°19' E 008°30'0 0.1
2016-Jul-18 17:28N 44°19' E 008°30'0 0.0
2016-Jul-18 16:28N 44°19' E 008°30'0 0.0
2016-Jul-18 15:28N 44°19' E 008°30'0 0.0
2016-Jul-18 14:28N 44°19' E 008°30'0 0.0
2016-Jul-18 13:28N 44°19' E 008°30'0 0.0
2016-Jul-18 12:28N 44°19' E 008°30'0 0.0
2016-Jul-18 11:28N 44°19' E 008°30'0 0.0
2016-Jul-18 10:28N 44°19' E 008°30'0 0.0
2016-Jul-18 09:22N 44°19' E 008°30'0 0.0
2016-Jul-18 08:28N 44°19' E 008°30'0 0.0
2016-Jul-18 07:28N 44°19' E 008°30'0 0.0
2016-Jul-18 06:22N 44°19' E 008°30'0 0.0
2016-Jul-18 05:28N 44°19' E 008°30'0 0.0
2016-Jul-18 04:28N 44°19' E 008°30'0 0.0
2016-Jul-18 03:28N 44°19' E 008°30'0 0.0
2016-Jul-18 02:22N 44°19' E 008°30'0 0.0
2016-Jul-18 01:28N 44°19' E 008°30'0 0.0
2016-Jul-18 00:28N 44°19' E 008°30'0 0.0
2016-Jul-17 23:28N 44°19' E 008°30'0 0.0
2016-Jul-17 22:28N 44°19' E 008°30'0 0.0
2016-Jul-17 21:28N 44°19' E 008°30'0 0.0
2016-Jul-17 20:28N 44°19' E 008°30'0 0.0
2016-Jul-17 19:28N 44°19' E 008°30'0 0.0
2016-Jul-17 18:28N 44°19' E 008°30'0 0.0
2016-Jul-17 17:31N 44°19' E 008°30'0 0.0
2016-Jul-17 16:28N 44°19' E 008°30'0 0.0
2016-Jul-17 15:28N 44°19' E 008°30'0 0.0
2016-Jul-17 14:31N 44°19' E 008°30'0 0.0
2016-Jul-17 13:28N 44°19' E 008°30'0 0.0
2016-Jul-17 12:28N 44°19' E 008°30'0 0.0
2016-Jul-17 11:31N 44°19' E 008°30'0 0.0
2016-Jul-17 10:10N 44°19' E 008°30'0 0.0
2016-Jul-17 09:28N 44°19' E 008°30'0 0.0
2016-Jul-17 08:28N 44°19' E 008°30'0 0.0
2016-Jul-17 07:28N 44°19' E 008°30'0 0.0
2016-Jul-17 06:28N 44°19' E 008°30'0 0.0
2016-Jul-17 04:22N 44°19' E 008°30'0 0.0
2016-Jul-17 03:28N 44°19' E 008°30'0 0.0
2016-Jul-17 02:25N 44°19' E 008°30'0 0.0
2016-Jul-17 01:28N 44°19' E 008°30'0 0.0
2016-Jul-17 00:28N 44°19' E 008°30'  

Dump ship's entire track history